sensor_id;sensor_type;location;lat;lon;timestamp;P1;durP1;ratioP1;P2;durP2;ratioP2
14789;SDS011;7486;51.010;10.366;2022-07-25T00:01:25;4.53;;;4.10;;
14789;SDS011;7486;51.010;10.366;2022-07-25T00:03:55;4.88;;;4.38;;
14789;SDS011;7486;51.010;10.366;2022-07-25T00:06:22;7.78;;;4.60;;
14789;SDS011;7486;51.010;10.366;2022-07-25T00:08:49;5.35;;;4.85;;
14789;SDS011;7486;51.010;10.366;2022-07-25T00:11:16;5.07;;;4.60;;
14789;SDS011;7486;51.010;10.366;2022-07-25T00:13:43;5.30;;;4.80;;
14789;SDS011;7486;51.010;10.366;2022-07-25T00:16:10;4.60;;;4.20;;
14789;SDS011;7486;51.010;10.366;2022-07-25T00:18:36;5.78;;;4.93;;
14789;SDS011;7486;51.010;10.366;2022-07-25T00:21:03;5.28;;;4.72;;
14789;SDS011;7486;51.010;10.366;2022-07-25T00:23:30;6.28;;;5.03;;
14789;SDS011;7486;51.010;10.366;2022-07-25T00:25:57;7.07;;;4.65;;
14789;SDS011;7486;51.010;10.366;2022-07-25T00:28:23;5.85;;;4.63;;
14789;SDS011;7486;51.010;10.366;2022-07-25T00:30:50;4.82;;;4.25;;
14789;SDS011;7486;51.010;10.366;2022-07-25T00:33:17;5.05;;;4.50;;
14789;SDS011;7486;51.010;10.366;2022-07-25T00:35:43;4.57;;;4.20;;
14789;SDS011;7486;51.010;10.366;2022-07-25T00:38:10;5.15;;;4.65;;
14789;SDS011;7486;51.010;10.366;2022-07-25T00:40:38;5.88;;;4.70;;
14789;SDS011;7486;51.010;10.366;2022-07-25T00:43:04;5.60;;;5.05;;
14789;SDS011;7486;51.010;10.366;2022-07-25T00:45:31;5.25;;;4.25;;
14789;SDS011;7486;51.010;10.366;2022-07-25T00:47:58;5.18;;;4.68;;
14789;SDS011;7486;51.010;10.366;2022-07-25T00:50:25;4.97;;;4.55;;
14789;SDS011;7486;51.010;10.366;2022-07-25T00:52:51;7.10;;;5.03;;
14789;SDS011;7486;51.010;10.366;2022-07-25T00:55:18;7.20;;;4.97;;
14789;SDS011;7486;51.010;10.366;2022-07-25T00:57:46;5.40;;;4.90;;
14789;SDS011;7486;51.010;10.366;2022-07-25T01:00:13;5.75;;;5.25;;
14789;SDS011;7486;51.010;10.366;2022-07-25T01:02:40;5.55;;;5.05;;
14789;SDS011;7486;51.010;10.366;2022-07-25T01:05:07;5.13;;;4.63;;
14789;SDS011;7486;51.010;10.366;2022-07-25T01:07:36;6.78;;;4.88;;
14789;SDS011;7486;51.010;10.366;2022-07-25T01:10:04;5.60;;;5.10;;
14789;SDS011;7486;51.010;10.366;2022-07-25T01:12:31;5.55;;;5.05;;
14789;SDS011;7486;51.010;10.366;2022-07-25T01:15:08;5.43;;;4.70;;
14789;SDS011;7486;51.010;10.366;2022-07-25T01:17:35;4.85;;;4.45;;
14789;SDS011;7486;51.010;10.366;2022-07-25T01:20:02;5.00;;;4.60;;
14789;SDS011;7486;51.010;10.366;2022-07-25T01:22:29;4.90;;;4.50;;
14789;SDS011;7486;51.010;10.366;2022-07-25T01:24:56;5.95;;;4.88;;
14789;SDS011;7486;51.010;10.366;2022-07-25T01:27:23;5.07;;;4.55;;
14789;SDS011;7486;51.010;10.366;2022-07-25T01:29:49;6.05;;;4.70;;
14789;SDS011;7486;51.010;10.366;2022-07-25T01:32:16;5.40;;;4.75;;
14789;SDS011;7486;51.010;10.366;2022-07-25T01:34:43;4.93;;;4.53;;
14789;SDS011;7486;51.010;10.366;2022-07-25T01:37:09;5.18;;;4.70;;
14789;SDS011;7486;51.010;10.366;2022-07-25T01:39:36;5.70;;;4.78;;
14789;SDS011;7486;51.010;10.366;2022-07-25T01:42:03;5.45;;;4.70;;
14789;SDS011;7486;51.010;10.366;2022-07-25T01:44:30;6.07;;;5.15;;
14789;SDS011;7486;51.010;10.366;2022-07-25T01:46:56;7.28;;;5.20;;
14789;SDS011;7486;51.010;10.366;2022-07-25T01:49:23;6.22;;;4.97;;
14789;SDS011;7486;51.010;10.366;2022-07-25T01:51:50;6.82;;;5.05;;
14789;SDS011;7486;51.010;10.366;2022-07-25T01:54:17;5.20;;;4.75;;
14789;SDS011;7486;51.010;10.366;2022-07-25T01:56:45;5.10;;;4.60;;
14789;SDS011;7486;51.010;10.366;2022-07-25T01:59:14;6.20;;;4.60;;
14789;SDS011;7486;51.010;10.366;2022-07-25T02:01:40;5.10;;;4.65;;
14789;SDS011;7486;51.010;10.366;2022-07-25T02:04:08;5.97;;;4.82;;
14789;SDS011;7486;51.010;10.366;2022-07-25T02:06:35;5.38;;;4.88;;
14789;SDS011;7486;51.010;10.366;2022-07-25T02:09:02;6.10;;;4.57;;
14789;SDS011;7486;51.010;10.366;2022-07-25T02:11:29;6.53;;;4.78;;
14789;SDS011;7486;51.010;10.366;2022-07-25T02:13:56;5.45;;;4.43;;
14789;SDS011;7486;51.010;10.366;2022-07-25T02:16:22;6.35;;;5.00;;
14789;SDS011;7486;51.010;10.366;2022-07-25T02:18:55;5.85;;;5.00;;
14789;SDS011;7486;51.010;10.366;2022-07-25T02:21:21;5.40;;;4.90;;
14789;SDS011;7486;51.010;10.366;2022-07-25T02:23:54;7.97;;;5.32;;
14789;SDS011;7486;51.010;10.366;2022-07-25T02:26:53;5.38;;;4.88;;
14789;SDS011;7486;51.010;10.366;2022-07-25T02:29:19;5.32;;;4.82;;
14789;SDS011;7486;51.010;10.366;2022-07-25T02:31:47;5.75;;;4.60;;
14789;SDS011;7486;51.010;10.366;2022-07-25T02:34:14;5.20;;;4.80;;
14789;SDS011;7486;51.010;10.366;2022-07-25T02:36:41;5.50;;;5.00;;
14789;SDS011;7486;51.010;10.366;2022-07-25T02:39:08;5.28;;;4.78;;
14789;SDS011;7486;51.010;10.366;2022-07-25T02:41:34;6.82;;;4.40;;
14789;SDS011;7486;51.010;10.366;2022-07-25T02:44:01;5.80;;;5.28;;
14789;SDS011;7486;51.010;10.366;2022-07-25T02:46:29;7.43;;;4.78;;
14789;SDS011;7486;51.010;10.366;2022-07-25T02:48:56;5.53;;;4.90;;
14789;SDS011;7486;51.010;10.366;2022-07-25T02:51:23;5.82;;;5.00;;
14789;SDS011;7486;51.010;10.366;2022-07-25T02:53:50;6.07;;;5.47;;
14789;SDS011;7486;51.010;10.366;2022-07-25T02:56:23;5.30;;;4.80;;
14789;SDS011;7486;51.010;10.366;2022-07-25T02:58:54;6.45;;;5.10;;
14789;SDS011;7486;51.010;10.366;2022-07-25T03:01:21;5.93;;;5.32;;
14789;SDS011;7486;51.010;10.366;2022-07-25T03:03:48;5.82;;;5.20;;
14789;SDS011;7486;51.010;10.366;2022-07-25T03:06:14;7.22;;;5.25;;
14789;SDS011;7486;51.010;10.366;2022-07-25T03:08:41;5.70;;;5.20;;
14789;SDS011;7486;51.010;10.366;2022-07-25T03:11:08;5.90;;;5.30;;
14789;SDS011;7486;51.010;10.366;2022-07-25T03:13:35;6.00;;;5.40;;
14789;SDS011;7486;51.010;10.366;2022-07-25T03:16:01;5.57;;;5.07;;
14789;SDS011;7486;51.010;10.366;2022-07-25T03:18:28;5.90;;;5.32;;
14789;SDS011;7486;51.010;10.366;2022-07-25T03:20:55;6.10;;;5.50;;
14789;SDS011;7486;51.010;10.366;2022-07-25T03:23:21;5.50;;;5.00;;
14789;SDS011;7486;51.010;10.366;2022-07-25T03:25:48;5.40;;;4.90;;
14789;SDS011;7486;51.010;10.366;2022-07-25T03:28:15;6.22;;;5.63;;
14789;SDS011;7486;51.010;10.366;2022-07-25T03:30:41;6.45;;;5.10;;
14789;SDS011;7486;51.010;10.366;2022-07-25T03:33:08;5.75;;;5.13;;
14789;SDS011;7486;51.010;10.366;2022-07-25T03:35:38;6.07;;;5.47;;
14789;SDS011;7486;51.010;10.366;2022-07-25T03:38:05;6.32;;;5.80;;
14789;SDS011;7486;51.010;10.366;2022-07-25T03:40:31;6.50;;;5.55;;
14789;SDS011;7486;51.010;10.366;2022-07-25T03:42:58;6.90;;;5.93;;
14789;SDS011;7486;51.010;10.366;2022-07-25T03:45:25;6.93;;;5.35;;
14789;SDS011;7486;51.010;10.366;2022-07-25T03:47:51;7.57;;;5.97;;
14789;SDS011;7486;51.010;10.366;2022-07-25T03:50:18;7.70;;;5.45;;
14789;SDS011;7486;51.010;10.366;2022-07-25T03:52:45;6.20;;;5.70;;
14789;SDS011;7486;51.010;10.366;2022-07-25T03:55:12;6.15;;;5.60;;
14789;SDS011;7486;51.010;10.366;2022-07-25T03:57:40;6.20;;;5.60;;
14789;SDS011;7486;51.010;10.366;2022-07-25T04:00:07;7.32;;;5.57;;
14789;SDS011;7486;51.010;10.366;2022-07-25T04:02:35;6.15;;;5.55;;
14789;SDS011;7486;51.010;10.366;2022-07-25T04:05:03;7.55;;;5.65;;
14789;SDS011;7486;51.010;10.366;2022-07-25T04:07:33;7.82;;;5.32;;
14789;SDS011;7486;51.010;10.366;2022-07-25T04:10:00;6.40;;;5.28;;
14789;SDS011;7486;51.010;10.366;2022-07-25T04:12:27;5.80;;;5.20;;
14789;SDS011;7486;51.010;10.366;2022-07-25T04:14:54;6.05;;;5.45;;
14789;SDS011;7486;51.010;10.366;2022-07-25T04:17:21;5.28;;;4.80;;
14789;SDS011;7486;51.010;10.366;2022-07-25T04:19:50;7.55;;;5.60;;
14789;SDS011;7486;51.010;10.366;2022-07-25T04:22:17;6.07;;;5.20;;
14789;SDS011;7486;51.010;10.366;2022-07-25T04:24:43;4.78;;;4.38;;
14789;SDS011;7486;51.010;10.366;2022-07-25T04:27:10;6.13;;;5.53;;
14789;SDS011;7486;51.010;10.366;2022-07-25T04:29:37;6.10;;;5.25;;
14789;SDS011;7486;51.010;10.366;2022-07-25T04:32:04;5.85;;;5.10;;
14789;SDS011;7486;51.010;10.366;2022-07-25T04:34:31;5.10;;;4.50;;
14789;SDS011;7486;51.010;10.366;2022-07-25T04:36:58;5.72;;;5.13;;
14789;SDS011;7486;51.010;10.366;2022-07-25T04:39:24;5.43;;;5.00;;
14789;SDS011;7486;51.010;10.366;2022-07-25T04:41:51;5.43;;;4.90;;
14789;SDS011;7486;51.010;10.366;2022-07-25T04:44:19;5.10;;;4.60;;
14789;SDS011;7486;51.010;10.366;2022-07-25T04:46:46;4.78;;;4.35;;
14789;SDS011;7486;51.010;10.366;2022-07-25T04:49:12;5.35;;;4.80;;
14789;SDS011;7486;51.010;10.366;2022-07-25T04:51:39;5.90;;;5.00;;
14789;SDS011;7486;51.010;10.366;2022-07-25T04:54:06;5.20;;;4.78;;
14789;SDS011;7486;51.010;10.366;2022-07-25T04:56:33;5.70;;;5.20;;
14789;SDS011;7486;51.010;10.366;2022-07-25T04:59:01;5.68;;;4.55;;
14789;SDS011;7486;51.010;10.366;2022-07-25T05:01:32;5.80;;;5.22;;
14789;SDS011;7486;51.010;10.366;2022-07-25T05:04:00;5.20;;;4.80;;
14789;SDS011;7486;51.010;10.366;2022-07-25T05:06:27;6.20;;;4.88;;
14789;SDS011;7486;51.010;10.366;2022-07-25T05:08:53;5.60;;;5.10;;
14789;SDS011;7486;51.010;10.366;2022-07-25T05:11:20;5.47;;;4.97;;
14789;SDS011;7486;51.010;10.366;2022-07-25T05:13:47;6.75;;;5.10;;
14789;SDS011;7486;51.010;10.366;2022-07-25T05:16:14;5.13;;;4.63;;
14789;SDS011;7486;51.010;10.366;2022-07-25T05:18:40;5.18;;;4.68;;
14789;SDS011;7486;51.010;10.366;2022-07-25T05:21:11;6.13;;;5.60;;
14789;SDS011;7486;51.010;10.366;2022-07-25T05:23:38;5.65;;;5.15;;
14789;SDS011;7486;51.010;10.366;2022-07-25T05:26:05;5.90;;;5.40;;
14789;SDS011;7486;51.010;10.366;2022-07-25T05:28:32;7.68;;;5.07;;
14789;SDS011;7486;51.010;10.366;2022-07-25T05:30:59;7.47;;;4.90;;
14789;SDS011;7486;51.010;10.366;2022-07-25T05:33:26;5.47;;;4.97;;
14789;SDS011;7486;51.010;10.366;2022-07-25T05:35:54;5.78;;;5.18;;
14789;SDS011;7486;51.010;10.366;2022-07-25T05:38:21;5.65;;;5.13;;
14789;SDS011;7486;51.010;10.366;2022-07-25T05:40:48;5.88;;;4.75;;
14789;SDS011;7486;51.010;10.366;2022-07-25T05:43:14;9.55;;;5.68;;
14789;SDS011;7486;51.010;10.366;2022-07-25T05:45:41;6.18;;;5.47;;
14789;SDS011;7486;51.010;10.366;2022-07-25T05:48:08;5.25;;;4.75;;
14789;SDS011;7486;51.010;10.366;2022-07-25T05:50:39;5.88;;;5.28;;
14789;SDS011;7486;51.010;10.366;2022-07-25T05:53:07;6.40;;;5.80;;
14789;SDS011;7486;51.010;10.366;2022-07-25T05:55:34;5.72;;;5.13;;
14789;SDS011;7486;51.010;10.366;2022-07-25T05:58:06;5.97;;;5.35;;
14789;SDS011;7486;51.010;10.366;2022-07-25T06:00:32;5.00;;;4.45;;
14789;SDS011;7486;51.010;10.366;2022-07-25T06:02:59;4.80;;;4.40;;
14789;SDS011;7486;51.010;10.366;2022-07-25T06:05:26;6.22;;;4.90;;
14789;SDS011;7486;51.010;10.366;2022-07-25T06:07:53;5.50;;;4.97;;
14789;SDS011;7486;51.010;10.366;2022-07-25T06:10:20;4.82;;;4.40;;
14789;SDS011;7486;51.010;10.366;2022-07-25T06:12:47;5.28;;;4.78;;
14789;SDS011;7486;51.010;10.366;2022-07-25T06:15:14;6.93;;;4.47;;
14789;SDS011;7486;51.010;10.366;2022-07-25T06:17:52;4.95;;;4.45;;
14789;SDS011;7486;51.010;10.366;2022-07-25T06:20:18;4.13;;;3.83;;
14789;SDS011;7486;51.010;10.366;2022-07-25T06:22:45;5.20;;;4.70;;
14789;SDS011;7486;51.010;10.366;2022-07-25T06:25:12;4.97;;;4.47;;
14789;SDS011;7486;51.010;10.366;2022-07-25T06:27:39;5.53;;;5.03;;
14789;SDS011;7486;51.010;10.366;2022-07-25T06:30:06;5.00;;;4.50;;
14789;SDS011;7486;51.010;10.366;2022-07-25T06:32:45;5.05;;;4.60;;
14789;SDS011;7486;51.010;10.366;2022-07-25T06:35:13;5.07;;;4.65;;
14789;SDS011;7486;51.010;10.366;2022-07-25T06:37:40;4.93;;;4.53;;
14789;SDS011;7486;51.010;10.366;2022-07-25T06:40:07;4.88;;;4.45;;
14789;SDS011;7486;51.010;10.366;2022-07-25T06:42:41;6.25;;;4.80;;
14789;SDS011;7486;51.010;10.366;2022-07-25T06:45:12;5.03;;;4.53;;
14789;SDS011;7486;51.010;10.366;2022-07-25T06:47:40;7.07;;;4.55;;
14789;SDS011;7486;51.010;10.366;2022-07-25T06:50:09;4.93;;;4.53;;
14789;SDS011;7486;51.010;10.366;2022-07-25T06:52:38;5.22;;;4.72;;
14789;SDS011;7486;51.010;10.366;2022-07-25T06:55:07;5.32;;;4.80;;
14789;SDS011;7486;51.010;10.366;2022-07-25T06:57:35;4.63;;;4.22;;
14789;SDS011;7486;51.010;10.366;2022-07-25T07:00:06;5.68;;;5.03;;
14789;SDS011;7486;51.010;10.366;2022-07-25T07:02:45;5.82;;;4.72;;
14789;SDS011;7486;51.010;10.366;2022-07-25T07:05:13;5.60;;;5.00;;
14789;SDS011;7486;51.010;10.366;2022-07-25T07:07:40;6.53;;;4.80;;
14789;SDS011;7486;51.010;10.366;2022-07-25T07:10:13;5.25;;;4.68;;
14789;SDS011;7486;51.010;10.366;2022-07-25T07:12:39;5.93;;;4.70;;
14789;SDS011;7486;51.010;10.366;2022-07-25T07:15:06;6.22;;;5.15;;
14789;SDS011;7486;51.010;10.366;2022-07-25T07:17:33;5.68;;;5.10;;
14789;SDS011;7486;51.010;10.366;2022-07-25T07:20:00;5.63;;;4.75;;
14789;SDS011;7486;51.010;10.366;2022-07-25T07:22:26;6.57;;;5.03;;
14789;SDS011;7486;51.010;10.366;2022-07-25T07:24:53;5.85;;;4.78;;
14789;SDS011;7486;51.010;10.366;2022-07-25T07:27:20;5.82;;;5.15;;
14789;SDS011;7486;51.010;10.366;2022-07-25T07:29:48;6.68;;;5.20;;
14789;SDS011;7486;51.010;10.366;2022-07-25T07:32:16;5.93;;;5.32;;
14789;SDS011;7486;51.010;10.366;2022-07-25T07:34:43;5.60;;;5.10;;
14789;SDS011;7486;51.010;10.366;2022-07-25T07:37:09;6.00;;;5.40;;
14789;SDS011;7486;51.010;10.366;2022-07-25T07:39:36;5.82;;;5.30;;
14789;SDS011;7486;51.010;10.366;2022-07-25T07:42:03;5.57;;;5.07;;
14789;SDS011;7486;51.010;10.366;2022-07-25T07:44:30;5.78;;;5.22;;
14789;SDS011;7486;51.010;10.366;2022-07-25T07:46:56;5.78;;;5.28;;
14789;SDS011;7486;51.010;10.366;2022-07-25T07:49:23;5.90;;;5.07;;
14789;SDS011;7486;51.010;10.366;2022-07-25T07:51:50;6.03;;;5.53;;
14789;SDS011;7486;51.010;10.366;2022-07-25T07:54:16;6.38;;;5.78;;
14789;SDS011;7486;51.010;10.366;2022-07-25T07:56:43;5.97;;;5.47;;
14789;SDS011;7486;51.010;10.366;2022-07-25T07:59:10;6.40;;;5.80;;
14789;SDS011;7486;51.010;10.366;2022-07-25T08:01:37;5.85;;;5.30;;
14789;SDS011;7486;51.010;10.366;2022-07-25T08:04:04;5.82;;;5.32;;
14789;SDS011;7486;51.010;10.366;2022-07-25T08:06:32;6.03;;;5.53;;
14789;SDS011;7486;51.010;10.366;2022-07-25T08:08:59;5.80;;;5.30;;
14789;SDS011;7486;51.010;10.366;2022-07-25T08:11:26;5.82;;;5.30;;
14789;SDS011;7486;51.010;10.366;2022-07-25T08:13:53;5.72;;;5.28;;
14789;SDS011;7486;51.010;10.366;2022-07-25T08:16:19;5.80;;;5.30;;
14789;SDS011;7486;51.010;10.366;2022-07-25T08:18:46;5.68;;;5.10;;
14789;SDS011;7486;51.010;10.366;2022-07-25T08:21:13;6.15;;;5.65;;
14789;SDS011;7486;51.010;10.366;2022-07-25T08:23:40;6.10;;;5.60;;
14789;SDS011;7486;51.010;10.366;2022-07-25T08:26:06;8.20;;;6.03;;
14789;SDS011;7486;51.010;10.366;2022-07-25T08:28:33;6.10;;;5.50;;
14789;SDS011;7486;51.010;10.366;2022-07-25T08:31:00;5.90;;;5.30;;
14789;SDS011;7486;51.010;10.366;2022-07-25T08:33:27;6.00;;;5.50;;
14789;SDS011;7486;51.010;10.366;2022-07-25T08:35:54;6.25;;;5.63;;
14789;SDS011;7486;51.010;10.366;2022-07-25T08:38:22;6.45;;;5.75;;
14789;SDS011;7486;51.010;10.366;2022-07-25T08:40:50;6.18;;;5.68;;
14789;SDS011;7486;51.010;10.366;2022-07-25T08:43:18;6.18;;;5.53;;
14789;SDS011;7486;51.010;10.366;2022-07-25T08:45:46;5.78;;;5.38;;
14789;SDS011;7486;51.010;10.366;2022-07-25T08:48:18;6.40;;;5.80;;
14789;SDS011;7486;51.010;10.366;2022-07-25T08:50:50;5.90;;;5.40;;
14789;SDS011;7486;51.010;10.366;2022-07-25T08:53:19;6.32;;;5.72;;
14789;SDS011;7486;51.010;10.366;2022-07-25T08:56:02;6.10;;;5.50;;
14789;SDS011;7486;51.010;10.366;2022-07-25T08:58:40;6.53;;;5.75;;
14789;SDS011;7486;51.010;10.366;2022-07-25T09:01:09;7.10;;;5.65;;
14789;SDS011;7486;51.010;10.366;2022-07-25T09:03:36;6.45;;;5.85;;
14789;SDS011;7486;51.010;10.366;2022-07-25T09:06:19;6.00;;;4.97;;
14789;SDS011;7486;51.010;10.366;2022-07-25T09:08:54;5.65;;;5.15;;
14789;SDS011;7486;51.010;10.366;2022-07-25T09:11:30;6.03;;;5.43;;
14789;SDS011;7486;51.010;10.366;2022-07-25T09:16:31;6.22;;;5.70;;
14789;SDS011;7486;51.010;10.366;2022-07-25T09:19:10;5.65;;;5.10;;
14789;SDS011;7486;51.010;10.366;2022-07-25T09:21:42;5.72;;;5.22;;
14789;SDS011;7486;51.010;10.366;2022-07-25T09:29:27;5.57;;;5.07;;
14789;SDS011;7486;51.010;10.366;2022-07-25T09:31:56;5.80;;;5.30;;
14789;SDS011;7486;51.010;10.366;2022-07-25T09:34:39;7.10;;;5.07;;
14789;SDS011;7486;51.010;10.366;2022-07-25T09:37:09;5.70;;;5.15;;
14789;SDS011;7486;51.010;10.366;2022-07-25T09:39:41;5.53;;;5.13;;
14789;SDS011;7486;51.010;10.366;2022-07-25T09:42:21;5.53;;;5.03;;
14789;SDS011;7486;51.010;10.366;2022-07-25T09:44:59;5.85;;;5.35;;
14789;SDS011;7486;51.010;10.366;2022-07-25T09:47:26;6.35;;;5.50;;
14789;SDS011;7486;51.010;10.366;2022-07-25T09:49:53;7.78;;;5.63;;
14789;SDS011;7486;51.010;10.366;2022-07-25T09:52:21;5.50;;;5.00;;
14789;SDS011;7486;51.010;10.366;2022-07-25T09:54:48;5.55;;;4.97;;
14789;SDS011;7486;51.010;10.366;2022-07-25T09:57:15;5.90;;;5.40;;
14789;SDS011;7486;51.010;10.366;2022-07-25T09:59:42;5.88;;;5.28;;
14789;SDS011;7486;51.010;10.366;2022-07-25T10:02:26;6.13;;;5.53;;
14789;SDS011;7486;51.010;10.366;2022-07-25T10:07:29;5.55;;;5.15;;
14789;SDS011;7486;51.010;10.366;2022-07-25T10:09:57;6.25;;;4.72;;
14789;SDS011;7486;51.010;10.366;2022-07-25T10:12:24;5.53;;;5.10;;
14789;SDS011;7486;51.010;10.366;2022-07-25T10:15:05;5.90;;;5.30;;
14789;SDS011;7486;51.010;10.366;2022-07-25T10:17:38;5.72;;;5.10;;
14789;SDS011;7486;51.010;10.366;2022-07-25T10:20:07;6.68;;;5.22;;
14789;SDS011;7486;51.010;10.366;2022-07-25T10:22:44;7.38;;;5.25;;
14789;SDS011;7486;51.010;10.366;2022-07-25T10:25:22;5.93;;;5.13;;
14789;SDS011;7486;51.010;10.366;2022-07-25T10:27:51;5.35;;;4.93;;
14789;SDS011;7486;51.010;10.366;2022-07-25T10:30:20;5.50;;;5.10;;
14789;SDS011;7486;51.010;10.366;2022-07-25T10:32:49;5.95;;;5.35;;
14789;SDS011;7486;51.010;10.366;2022-07-25T10:35:29;5.40;;;5.00;;
14789;SDS011;7486;51.010;10.366;2022-07-25T10:37:56;5.82;;;5.22;;
14789;SDS011;7486;51.010;10.366;2022-07-25T10:40:28;5.20;;;4.80;;
14789;SDS011;7486;51.010;10.366;2022-07-25T10:43:05;5.20;;;4.68;;
14789;SDS011;7486;51.010;10.366;2022-07-25T10:45:53;6.35;;;4.82;;
14789;SDS011;7486;51.010;10.366;2022-07-25T10:50:57;5.60;;;5.10;;
14789;SDS011;7486;51.010;10.366;2022-07-25T10:53:43;5.57;;;5.07;;
14789;SDS011;7486;51.010;10.366;2022-07-25T10:58:47;5.28;;;4.80;;
14789;SDS011;7486;51.010;10.366;2022-07-25T11:01:27;5.70;;;5.20;;
14789;SDS011;7486;51.010;10.366;2022-07-25T11:04:02;5.00;;;4.60;;
14789;SDS011;7486;51.010;10.366;2022-07-25T11:09:17;5.20;;;4.80;;
14789;SDS011;7486;51.010;10.366;2022-07-25T11:11:56;5.93;;;5.32;;
14789;SDS011;7486;51.010;10.366;2022-07-25T11:14:28;5.05;;;4.63;;
14789;SDS011;7486;51.010;10.366;2022-07-25T11:19:36;4.47;;;4.07;;
14789;SDS011;7486;51.010;10.366;2022-07-25T11:22:03;4.22;;;3.92;;
14789;SDS011;7486;51.010;10.366;2022-07-25T11:27:10;4.50;;;4.10;;
14789;SDS011;7486;51.010;10.366;2022-07-25T11:29:39;4.20;;;3.90;;
14789;SDS011;7486;51.010;10.366;2022-07-25T11:32:07;5.25;;;4.13;;
14789;SDS011;7486;51.010;10.366;2022-07-25T11:34:37;4.65;;;4.00;;
14789;SDS011;7486;51.010;10.366;2022-07-25T11:37:07;4.53;;;4.05;;
14789;SDS011;7486;51.010;10.366;2022-07-25T11:39:37;4.55;;;4.18;;
14789;SDS011;7486;51.010;10.366;2022-07-25T11:42:07;4.55;;;4.15;;
14789;SDS011;7486;51.010;10.366;2022-07-25T11:44:39;4.30;;;4.00;;
14789;SDS011;7486;51.010;10.366;2022-07-25T11:47:26;4.70;;;4.07;;
14789;SDS011;7486;51.010;10.366;2022-07-25T11:49:54;4.38;;;4.07;;
14789;SDS011;7486;51.010;10.366;2022-07-25T11:52:23;4.45;;;4.15;;
14789;SDS011;7486;51.010;10.366;2022-07-25T11:54:53;4.03;;;3.60;;
14789;SDS011;7486;51.010;10.366;2022-07-25T11:57:26;4.43;;;4.03;;
14789;SDS011;7486;51.010;10.366;2022-07-25T11:59:54;4.28;;;3.95;;
14789;SDS011;7486;51.010;10.366;2022-07-25T12:02:23;4.00;;;3.70;;
14789;SDS011;7486;51.010;10.366;2022-07-25T12:10:04;6.93;;;3.88;;
14789;SDS011;7486;51.010;10.366;2022-07-25T12:12:46;4.50;;;4.07;;
14789;SDS011;7486;51.010;10.366;2022-07-25T12:15:24;5.05;;;4.60;;
14789;SDS011;7486;51.010;10.366;2022-07-25T12:17:56;4.60;;;4.20;;
14789;SDS011;7486;51.010;10.366;2022-07-25T12:22:55;4.70;;;4.28;;
14789;SDS011;7486;51.010;10.366;2022-07-25T12:25:27;4.85;;;4.30;;
14789;SDS011;7486;51.010;10.366;2022-07-25T12:27:57;6.32;;;4.38;;
14789;SDS011;7486;51.010;10.366;2022-07-25T12:30:25;4.15;;;3.85;;
14789;SDS011;7486;51.010;10.366;2022-07-25T12:32:53;4.80;;;4.40;;
14789;SDS011;7486;51.010;10.366;2022-07-25T12:35:21;5.78;;;4.78;;
14789;SDS011;7486;51.010;10.366;2022-07-25T12:37:48;4.55;;;4.05;;
14789;SDS011;7486;51.010;10.366;2022-07-25T12:40:16;4.60;;;4.20;;
14789;SDS011;7486;51.010;10.366;2022-07-25T12:42:43;4.30;;;3.92;;
14789;SDS011;7486;51.010;10.366;2022-07-25T12:45:11;4.18;;;3.83;;
14789;SDS011;7486;51.010;10.366;2022-07-25T12:47:38;4.78;;;4.13;;
14789;SDS011;7486;51.010;10.366;2022-07-25T12:50:05;4.60;;;4.30;;
14789;SDS011;7486;51.010;10.366;2022-07-25T12:52:33;4.20;;;3.90;;
14789;SDS011;7486;51.010;10.366;2022-07-25T12:55:00;4.40;;;4.00;;
14789;SDS011;7486;51.010;10.366;2022-07-25T12:57:27;4.60;;;4.20;;
14789;SDS011;7486;51.010;10.366;2022-07-25T12:59:54;4.70;;;4.30;;
14789;SDS011;7486;51.010;10.366;2022-07-25T13:02:20;4.80;;;4.40;;
14789;SDS011;7486;51.010;10.366;2022-07-25T13:04:47;4.97;;;4.57;;
14789;SDS011;7486;51.010;10.366;2022-07-25T13:07:14;4.60;;;4.30;;
14789;SDS011;7486;51.010;10.366;2022-07-25T13:09:41;4.70;;;4.30;;
14789;SDS011;7486;51.010;10.366;2022-07-25T13:12:08;4.82;;;4.43;;
14789;SDS011;7486;51.010;10.366;2022-07-25T13:14:41;6.35;;;4.40;;
14789;SDS011;7486;51.010;10.366;2022-07-25T13:17:08;5.20;;;4.40;;
14789;SDS011;7486;51.010;10.366;2022-07-25T13:19:35;4.50;;;4.10;;
14789;SDS011;7486;51.010;10.366;2022-07-25T13:22:01;5.25;;;4.15;;
14789;SDS011;7486;51.010;10.366;2022-07-25T13:24:28;4.97;;;4.28;;
14789;SDS011;7486;51.010;10.366;2022-07-25T13:26:55;5.30;;;4.00;;
14789;SDS011;7486;51.010;10.366;2022-07-25T13:29:22;4.72;;;4.32;;
14789;SDS011;7486;51.010;10.366;2022-07-25T13:31:49;4.85;;;4.45;;
14789;SDS011;7486;51.010;10.366;2022-07-25T13:34:16;4.43;;;4.03;;
14789;SDS011;7486;51.010;10.366;2022-07-25T13:36:43;4.65;;;4.07;;
14789;SDS011;7486;51.010;10.366;2022-07-25T13:39:09;4.28;;;3.80;;
14789;SDS011;7486;51.010;10.366;2022-07-25T13:41:36;4.47;;;4.07;;
14789;SDS011;7486;51.010;10.366;2022-07-25T13:44:04;4.28;;;3.88;;
14789;SDS011;7486;51.010;10.366;2022-07-25T13:46:31;5.07;;;3.58;;
14789;SDS011;7486;51.010;10.366;2022-07-25T13:48:58;5.40;;;4.00;;
14789;SDS011;7486;51.010;10.366;2022-07-25T13:51:24;4.60;;;3.90;;
14789;SDS011;7486;51.010;10.366;2022-07-25T13:53:51;4.68;;;4.00;;
14789;SDS011;7486;51.010;10.366;2022-07-25T13:56:18;4.30;;;3.95;;
14789;SDS011;7486;51.010;10.366;2022-07-25T13:58:45;4.85;;;4.35;;
14789;SDS011;7486;51.010;10.366;2022-07-25T14:01:13;4.13;;;3.83;;
14789;SDS011;7486;51.010;10.366;2022-07-25T14:03:40;4.20;;;3.70;;
14789;SDS011;7486;51.010;10.366;2022-07-25T14:06:08;4.32;;;3.92;;
14789;SDS011;7486;51.010;10.366;2022-07-25T14:08:37;4.78;;;3.78;;
14789;SDS011;7486;51.010;10.366;2022-07-25T14:11:05;4.10;;;3.70;;
14789;SDS011;7486;51.010;10.366;2022-07-25T14:13:32;5.00;;;4.28;;
14789;SDS011;7486;51.010;10.366;2022-07-25T14:15:59;5.28;;;4.03;;
14789;SDS011;7486;51.010;10.366;2022-07-25T14:18:25;4.15;;;3.63;;
14789;SDS011;7486;51.010;10.366;2022-07-25T14:20:52;4.30;;;4.00;;
14789;SDS011;7486;51.010;10.366;2022-07-25T14:23:19;4.60;;;4.20;;
14789;SDS011;7486;51.010;10.366;2022-07-25T14:25:45;4.82;;;3.97;;
14789;SDS011;7486;51.010;10.366;2022-07-25T14:28:12;4.00;;;3.70;;
14789;SDS011;7486;51.010;10.366;2022-07-25T14:30:39;5.18;;;4.03;;
14789;SDS011;7486;51.010;10.366;2022-07-25T14:33:06;4.97;;;4.03;;
14789;SDS011;7486;51.010;10.366;2022-07-25T14:35:33;6.68;;;4.90;;
14789;SDS011;7486;51.010;10.366;2022-07-25T14:38:00;14.00;;;4.63;;
14789;SDS011;7486;51.010;10.366;2022-07-25T14:40:27;6.10;;;4.90;;
14789;SDS011;7486;51.010;10.366;2022-07-25T14:42:53;7.88;;;4.90;;
14789;SDS011;7486;51.010;10.366;2022-07-25T14:45:20;7.18;;;5.32;;
14789;SDS011;7486;51.010;10.366;2022-07-25T14:47:47;8.50;;;5.78;;
14789;SDS011;7486;51.010;10.366;2022-07-25T14:50:13;10.02;;;6.10;;
14789;SDS011;7486;51.010;10.366;2022-07-25T14:52:40;7.70;;;6.25;;
14789;SDS011;7486;51.010;10.366;2022-07-25T14:55:07;8.93;;;5.40;;
14789;SDS011;7486;51.010;10.366;2022-07-25T14:57:34;8.32;;;5.18;;
14789;SDS011;7486;51.010;10.366;2022-07-25T15:00:02;9.48;;;5.63;;
14789;SDS011;7486;51.010;10.366;2022-07-25T15:02:30;9.48;;;5.60;;
14789;SDS011;7486;51.010;10.366;2022-07-25T15:04:57;7.47;;;5.53;;
14789;SDS011;7486;51.010;10.366;2022-07-25T15:07:23;7.45;;;4.78;;
14789;SDS011;7486;51.010;10.366;2022-07-25T15:09:50;5.43;;;4.50;;
14789;SDS011;7486;51.010;10.366;2022-07-25T15:12:17;6.85;;;4.50;;
14789;SDS011;7486;51.010;10.366;2022-07-25T15:14:43;6.50;;;4.88;;
14789;SDS011;7486;51.010;10.366;2022-07-25T15:17:11;5.80;;;4.28;;
14789;SDS011;7486;51.010;10.366;2022-07-25T15:19:38;7.13;;;4.70;;
14789;SDS011;7486;51.010;10.366;2022-07-25T15:22:04;5.78;;;4.43;;
14789;SDS011;7486;51.010;10.366;2022-07-25T15:24:31;5.18;;;4.60;;
14789;SDS011;7486;51.010;10.366;2022-07-25T15:27:18;5.70;;;4.55;;